KDKB

De Kalb Taylor Municipal Airport

De Kalb, Illinois, USA
METAR KDKB 231055Z AUTO 00000KT M1/4SM FG OVC002 11/11 A3017 RMK AO2 T01110111
Observed Flight Rules
May-23 @ 10:55 UTC (10 minutes ago) Instrument Flight Rules
Visibility Clouds Conditions
1/4 miles
  • Overcast at 200' AGL
  • Fog
Temperatures Readings
Current 11°C / 52°F
Dewpoint 11°C / 52°F
Humidity 100%
Altimeter 30.17" Hg
Pressure 1022 hPa
Elevation 279
METAR KDKB 231055Z AUTO 00000KT M1/4SM FG OVC002 11/11 A3017 RMK AO2 T01110111
Observed Flight Rules
May-23 @ 10:55 UTC
(10 minutes ago)
LIFR
Clouds
  • Overcast at 200' AGL
Conditions
  • Fog
Temperature Dewpoint
11°C / 52°F 11°C / 52°F
Humidity Altimeter Pressure
100% 30.17" Hg 1022 hPa